createdAt,value
2023-01-01T00:00:06.800Z,12.10
2023-01-01T00:02:37.137Z,15.60
2023-01-01T00:05:05.493Z,16.50
2023-01-01T00:07:33.458Z,16.90
2023-01-01T00:10:18.789Z,16.23
2023-01-01T00:12:46.618Z,16.33
2023-01-01T00:15:14.267Z,15.20
2023-01-01T00:17:43.256Z,15.90
2023-01-01T00:20:11.363Z,16.10
2023-01-01T00:22:55.913Z,17.30
2023-01-01T00:25:23.964Z,15.47
2023-01-01T00:27:51.890Z,15.73
2023-01-01T00:30:19.711Z,13.67
2023-01-01T00:32:55.018Z,14.77
2023-01-01T00:35:26.240Z,14.30
2023-01-01T00:37:56.076Z,14.50
2023-01-01T00:40:23.828Z,13.87
2023-01-01T00:42:51.817Z,14.40
2023-01-01T00:45:22.335Z,13.47
2023-01-01T00:47:52.011Z,13.17
2023-01-01T00:50:19.808Z,12.40
2023-01-01T00:52:48.985Z,11.63
2023-01-01T00:55:17.002Z,10.50
2023-01-01T00:57:44.836Z,10.17
2023-01-01T01:00:14.003Z,10.67
2023-01-01T01:02:41.877Z,10.40
2023-01-01T01:05:11.346Z,9.17
2023-01-01T01:07:39.851Z,7.27
2023-01-01T01:10:09.515Z,8.50
2023-01-01T01:12:37.411Z,7.27
2023-01-01T01:15:05.842Z,6.83
2023-01-01T01:17:34.723Z,6.77
2023-01-01T01:20:02.665Z,6.47
2023-01-01T01:22:31.759Z,6.73
2023-01-01T01:24:59.469Z,5.83
2023-01-01T01:27:27.076Z,5.20
2023-01-01T01:29:54.827Z,4.27
2023-01-01T01:32:24.495Z,4.63
2023-01-01T01:34:52.237Z,3.77
2023-01-01T01:37:19.927Z,4.30
2023-01-01T01:39:53.632Z,3.57
2023-01-01T01:42:23.093Z,3.30
2023-01-01T01:44:56.140Z,3.20
2023-01-01T01:47:27.293Z,2.90
2023-01-01T01:49:56.918Z,2.90
2023-01-01T01:52:25.089Z,3.00
2023-01-01T01:54:54.154Z,3.50
2023-01-01T01:57:21.790Z,2.90
2023-01-01T01:59:50.068Z,3.13
2023-01-01T02:02:20.032Z,2.60
2023-01-01T02:04:47.846Z,2.97
2023-01-01T02:07:15.710Z,2.53
2023-01-01T02:09:43.421Z,2.77
2023-01-01T02:12:12.544Z,2.37
2023-01-01T02:14:40.415Z,2.57
2023-01-01T02:17:09.914Z,1.90
2023-01-01T02:19:45.073Z,3.10
2023-01-01T02:22:15.955Z,1.97
2023-01-01T02:24:59.153Z,2.30
2023-01-01T02:27:30.117Z,1.97
2023-01-01T02:30:00.515Z,2.20
2023-01-01T02:32:29.064Z,1.87
2023-01-01T02:34:59.327Z,2.37
2023-01-01T02:37:27.077Z,1.90
2023-01-01T02:39:57.199Z,1.90
2023-01-01T02:42:25.850Z,2.10
2023-01-01T02:44:54.760Z,1.70
2023-01-01T02:47:23.836Z,1.83
2023-01-01T02:49:57.700Z,1.47
2023-01-01T02:52:43.767Z,1.50
2023-01-01T02:55:17.640Z,1.80
2023-01-01T02:57:47.779Z,1.63
2023-01-01T03:00:28.071Z,1.50
2023-01-01T03:03:10.255Z,1.57
2023-01-01T03:06:01.521Z,1.47
2023-01-01T03:08:32.174Z,1.73
2023-01-01T03:11:01.995Z,1.60
2023-01-01T03:13:33.831Z,1.80
2023-01-01T03:16:03.894Z,1.53
2023-01-01T03:18:34.939Z,2.33
2023-01-01T03:21:03.107Z,1.40
2023-01-01T03:23:32.765Z,1.17
2023-01-01T03:26:01.550Z,1.57
2023-01-01T03:28:30.996Z,1.53
2023-01-01T03:30:59.445Z,1.23
2023-01-01T03:33:30.000Z,1.40
2023-01-01T03:36:00.285Z,1.73
2023-01-01T03:38:30.850Z,1.33
2023-01-01T03:41:00.193Z,1.77
2023-01-01T03:43:31.430Z,1.70
2023-01-01T03:45:59.229Z,1.70
2023-01-01T03:48:27.162Z,1.40
2023-01-01T03:51:02.737Z,1.37
2023-01-01T03:53:35.374Z,1.97
2023-01-01T03:56:08.262Z,1.57
2023-01-01T03:58:37.814Z,1.47
2023-01-01T04:01:08.775Z,1.43
2023-01-01T04:03:36.509Z,1.77
2023-01-01T04:06:05.911Z,1.30
2023-01-01T04:08:33.912Z,1.60
2023-01-01T04:11:22.049Z,1.63
2023-01-01T04:13:49.936Z,1.17
2023-01-01T04:16:17.895Z,1.57
2023-01-01T04:18:45.725Z,1.03
2023-01-01T04:21:14.911Z,1.10
2023-01-01T04:23:42.770Z,1.43
2023-01-01T04:26:13.971Z,1.50
2023-01-01T04:28:42.164Z,1.20
2023-01-01T04:31:11.554Z,1.50
2023-01-01T04:33:39.424Z,1.67
2023-01-01T04:36:07.949Z,1.40
2023-01-01T04:38:37.655Z,1.53
2023-01-01T04:41:05.751Z,1.20
2023-01-01T04:43:33.647Z,1.40
2023-01-01T04:46:02.646Z,1.47
2023-01-01T04:48:30.731Z,1.30
2023-01-01T04:50:58.668Z,1.17
2023-01-01T04:53:26.582Z,1.77
2023-01-01T04:55:55.819Z,1.73
2023-01-01T04:58:24.060Z,1.10
2023-01-01T05:00:52.147Z,1.70
2023-01-01T05:03:19.897Z,1.67
2023-01-01T05:05:51.438Z,1.37
2023-01-01T05:08:19.400Z,1.67
2023-01-01T05:10:47.191Z,1.77
2023-01-01T05:13:16.286Z,1.47
2023-01-01T05:15:44.054Z,1.60
2023-01-01T05:18:12.216Z,1.60
2023-01-01T05:20:39.967Z,2.13
2023-01-01T05:23:07.826Z,1.97
2023-01-01T05:25:35.778Z,1.80
2023-01-01T05:28:03.543Z,1.50
2023-01-01T05:30:32.753Z,1.40
2023-01-01T05:33:00.396Z,1.50
2023-01-01T05:35:28.245Z,1.90
2023-01-01T05:37:56.094Z,1.60
2023-01-01T05:40:24.144Z,1.37
2023-01-01T05:42:52.137Z,1.53
2023-01-01T05:45:19.915Z,1.40
2023-01-01T05:47:49.143Z,1.73
2023-01-01T05:50:17.091Z,1.50
2023-01-01T05:52:44.970Z,1.70
2023-01-01T05:55:12.864Z,1.67
2023-01-01T05:57:40.792Z,1.40
2023-01-01T06:00:09.672Z,1.40
2023-01-01T06:02:37.556Z,1.80
2023-01-01T06:05:07.353Z,1.60
2023-01-01T06:10:09.910Z,1.60
2023-01-01T06:12:37.471Z,1.60
2023-01-01T06:15:05.863Z,1.83
2023-01-01T06:17:34.389Z,1.50
2023-01-01T06:20:02.085Z,1.63
2023-01-01T06:22:31.053Z,1.67
2023-01-01T06:24:58.747Z,2.00
2023-01-01T06:27:27.425Z,1.40
2023-01-01T06:29:55.286Z,1.33
2023-01-01T06:32:22.879Z,1.70
2023-01-01T06:34:50.503Z,1.57
2023-01-01T06:37:18.058Z,1.73
2023-01-01T06:39:47.198Z,1.53
2023-01-01T06:42:14.912Z,1.83
2023-01-01T06:44:42.462Z,2.00
2023-01-01T06:47:10.202Z,1.47
2023-01-01T06:49:37.775Z,2.27
2023-01-01T06:52:05.567Z,1.57
2023-01-01T06:54:33.130Z,1.60
2023-01-01T06:57:02.150Z,1.63
2023-01-01T06:59:29.721Z,1.50
2023-01-01T07:01:57.484Z,1.50
2023-01-01T07:04:25.196Z,1.60
2023-01-01T07:06:52.749Z,2.17
2023-01-01T07:09:20.305Z,1.70
2023-01-01T07:11:48.004Z,1.30
2023-01-01T07:14:16.913Z,1.90
2023-01-01T07:16:44.522Z,1.50
2023-01-01T07:19:12.122Z,1.93
2023-01-01T07:21:41.732Z,1.43
2023-01-01T07:24:11.388Z,2.13
2023-01-01T07:26:39.921Z,1.80
2023-01-01T07:29:08.849Z,1.60
2023-01-01T07:31:38.791Z,1.77
2023-01-01T07:34:06.505Z,1.57
2023-01-01T07:36:34.510Z,1.50
2023-01-01T07:39:05.145Z,2.00
2023-01-01T07:41:33.421Z,1.80
2023-01-01T07:44:01.242Z,1.57
2023-01-01T07:46:29.319Z,1.70
2023-01-01T07:48:58.457Z,2.00
2023-01-01T07:51:26.560Z,2.13
2023-01-01T07:53:54.474Z,1.53
2023-01-01T07:56:22.363Z,1.73
2023-01-01T07:58:50.266Z,1.93
2023-01-01T08:01:19.116Z,2.17
2023-01-01T08:03:51.320Z,1.80
2023-01-01T08:06:20.410Z,1.80
2023-01-01T08:08:48.236Z,2.23
2023-01-01T08:11:16.129Z,2.13
2023-01-01T08:13:43.833Z,1.87
2023-01-01T08:16:11.592Z,2.03
2023-01-01T08:18:39.438Z,1.50
2023-01-01T08:21:07.369Z,1.50
2023-01-01T08:23:36.577Z,1.97
2023-01-01T08:26:04.685Z,1.87
2023-01-01T08:28:32.684Z,1.73
2023-01-01T08:31:00.578Z,1.87
2023-01-01T08:33:29.477Z,2.20
2023-01-01T08:35:57.170Z,1.90
2023-01-01T08:38:25.026Z,1.80
2023-01-01T08:40:54.230Z,3.53
2023-01-01T08:43:22.044Z,2.20
2023-01-01T08:45:49.745Z,1.73
2023-01-01T08:48:17.684Z,2.00
2023-01-01T08:50:45.409Z,1.70
2023-01-01T08:53:13.799Z,1.67
2023-01-01T08:55:41.551Z,2.00
2023-01-01T08:58:10.764Z,1.60
2023-01-01T09:00:38.613Z,1.93
2023-01-01T09:03:06.496Z,1.67
2023-01-01T09:05:34.307Z,1.80
2023-01-01T09:08:02.029Z,1.93
2023-01-01T09:10:29.853Z,2.13
2023-01-01T09:12:57.621Z,1.80
2023-01-01T09:15:26.846Z,1.90
2023-01-01T09:17:54.784Z,1.97
2023-01-01T09:20:22.583Z,1.80
2023-01-01T09:22:50.671Z,2.27
2023-01-01T09:25:18.583Z,1.90
2023-01-01T09:27:46.509Z,1.80
2023-01-01T09:30:15.136Z,2.37
2023-01-01T09:32:44.342Z,1.77
2023-01-01T09:35:12.131Z,2.20
2023-01-01T09:37:39.981Z,1.63
2023-01-01T09:40:08.946Z,1.87
2023-01-01T09:42:38.267Z,1.47
2023-01-01T09:45:18.579Z,1.50
2023-01-01T09:47:51.398Z,1.77
2023-01-01T09:50:19.962Z,2.20
2023-01-01T09:52:51.806Z,1.47
2023-01-01T09:55:24.530Z,2.10
2023-01-01T09:57:52.216Z,1.70
2023-01-01T10:00:20.853Z,1.73
2023-01-01T10:03:08.677Z,1.57
2023-01-01T10:05:43.972Z,2.03
2023-01-01T10:08:22.976Z,2.07
2023-01-01T10:10:55.115Z,1.50
2023-01-01T10:13:24.673Z,2.00
2023-01-01T10:15:56.088Z,1.90
2023-01-01T10:18:27.303Z,2.17
2023-01-01T10:21:00.350Z,1.60
2023-01-01T10:23:29.255Z,1.63
2023-01-01T10:25:57.731Z,2.10
2023-01-01T10:28:28.151Z,2.03
2023-01-01T10:30:59.559Z,1.63
2023-01-01T10:33:29.530Z,1.80
2023-01-01T10:35:57.584Z,1.87
2023-01-01T10:38:34.508Z,2.13
2023-01-01T10:41:13.641Z,1.67
2023-01-01T10:43:45.631Z,1.57
2023-01-01T10:46:14.549Z,1.70
2023-01-01T10:48:43.731Z,1.80
2023-01-01T10:51:15.856Z,1.60
2023-01-01T10:53:44.056Z,1.83
2023-01-01T10:56:12.887Z,2.00
2023-01-01T10:58:45.049Z,1.73
2023-01-01T11:01:13.948Z,1.60
2023-01-01T11:03:56.028Z,1.97
2023-01-01T11:06:24.448Z,2.30
2023-01-01T11:08:53.347Z,1.80
2023-01-01T11:11:22.377Z,1.60
2023-01-01T11:13:53.485Z,1.60
2023-01-01T11:16:21.279Z,1.83
2023-01-01T11:18:49.050Z,1.37
2023-01-01T11:21:22.693Z,1.67
2023-01-01T11:23:50.990Z,1.90
2023-01-01T11:26:24.525Z,2.67
2023-01-01T11:29:03.318Z,1.73
2023-01-01T11:31:32.203Z,1.80
2023-01-01T11:34:03.697Z,1.53
2023-01-01T11:36:33.640Z,1.63
2023-01-01T11:39:07.845Z,2.30
2023-01-01T11:41:45.277Z,1.87
2023-01-01T11:44:13.385Z,1.90
2023-01-01T11:46:41.186Z,1.73
2023-01-01T11:49:14.452Z,2.03
2023-01-01T11:51:43.795Z,2.10
2023-01-01T11:54:22.132Z,1.90
2023-01-01T11:56:50.326Z,1.97
2023-01-01T11:59:18.531Z,1.73
2023-01-01T12:01:48.140Z,1.80
2023-01-01T12:04:18.992Z,1.67
2023-01-01T12:06:50.665Z,1.83
2023-01-01T12:09:20.424Z,2.00
2023-01-01T12:11:50.667Z,1.60
2023-01-01T12:14:20.479Z,2.17
2023-01-01T12:16:51.694Z,1.37
2023-01-01T12:19:22.017Z,1.80
2023-01-01T12:21:52.904Z,2.00
2023-01-01T12:24:20.824Z,1.80
2023-01-01T12:26:58.057Z,2.73
2023-01-01T12:29:39.251Z,1.50
2023-01-01T12:32:10.510Z,1.90
2023-01-01T12:34:59.669Z,2.07
2023-01-01T12:37:34.865Z,1.80
2023-01-01T12:40:32.281Z,1.70
2023-01-01T12:43:02.776Z,2.50
2023-01-01T12:46:03.402Z,1.83
2023-01-01T12:48:41.489Z,1.90
2023-01-01T12:51:14.865Z,1.90
2023-01-01T12:53:46.953Z,1.67
2023-01-01T12:56:22.576Z,1.87
2023-01-01T12:58:52.954Z,1.90
2023-01-01T13:01:22.524Z,1.70
2023-01-01T13:03:51.734Z,2.10
2023-01-01T13:06:26.521Z,1.90
2023-01-01T13:09:01.003Z,2.00
2023-01-01T13:11:29.124Z,2.10
2023-01-01T13:13:56.847Z,1.70
2023-01-01T13:16:34.940Z,1.63
2023-01-01T13:19:03.247Z,1.87
2023-01-01T13:21:32.569Z,1.97
2023-01-01T13:24:12.284Z,1.60
2023-01-01T13:26:41.102Z,1.70
2023-01-01T13:29:36.845Z,1.90
2023-01-01T13:32:08.411Z,1.90
2023-01-01T13:35:00.646Z,1.67
2023-01-01T13:37:33.001Z,1.90
2023-01-01T13:40:02.553Z,2.00
2023-01-01T13:42:52.409Z,2.40
2023-01-01T13:45:44.543Z,2.20
2023-01-01T13:48:17.588Z,1.63
2023-01-01T13:50:48.577Z,1.60
2023-01-01T13:53:28.102Z,1.90
2023-01-01T13:56:17.399Z,1.70
2023-01-01T13:59:05.750Z,2.07
2023-01-01T14:01:46.268Z,2.57
2023-01-01T14:04:18.726Z,1.83
2023-01-01T14:06:47.338Z,1.70
2023-01-01T14:09:17.440Z,1.63
2023-01-01T14:11:46.482Z,2.17
2023-01-01T14:14:25.214Z,1.80
2023-01-01T14:16:53.405Z,1.87
2023-01-01T14:19:21.123Z,1.97
2023-01-01T14:21:48.936Z,2.13
2023-01-01T14:24:17.522Z,2.20
2023-01-01T14:26:46.749Z,1.90
2023-01-01T14:29:17.896Z,1.67
2023-01-01T14:31:52.600Z,2.23
2023-01-01T14:34:24.596Z,1.80
2023-01-01T14:36:54.755Z,1.57
2023-01-01T14:39:27.935Z,1.80
2023-01-01T14:41:59.212Z,1.70
2023-01-01T14:44:29.441Z,1.63
2023-01-01T14:46:57.251Z,1.43
2023-01-01T14:49:27.389Z,1.60
2023-01-01T14:51:56.752Z,1.83
2023-01-01T14:54:26.239Z,2.90
2023-01-01T14:56:54.052Z,1.60
2023-01-01T14:59:24.982Z,1.83
2023-01-01T15:02:00.417Z,4.60
2023-01-01T15:04:28.534Z,2.17
2023-01-01T15:06:56.810Z,1.70
2023-01-01T15:09:24.633Z,1.63
2023-01-01T15:11:53.220Z,1.80
2023-01-01T15:14:32.938Z,2.00
2023-01-01T15:17:04.363Z,1.70
2023-01-01T15:19:32.144Z,1.40
2023-01-01T15:22:00.022Z,1.87
2023-01-01T15:24:29.320Z,2.03
2023-01-01T15:26:57.721Z,2.00
2023-01-01T15:29:28.889Z,1.67
2023-01-01T15:32:00.022Z,2.23
2023-01-01T15:34:29.614Z,1.60
2023-01-01T15:36:58.179Z,1.60
2023-01-01T15:39:26.038Z,2.00
2023-01-01T15:41:53.823Z,2.43
2023-01-01T15:44:26.991Z,1.60
2023-01-01T15:46:54.880Z,1.70
2023-01-01T15:49:28.109Z,1.63
2023-01-01T15:51:57.256Z,1.57
2023-01-01T15:54:24.966Z,2.20
2023-01-01T15:56:52.824Z,2.03
2023-01-01T15:59:27.439Z,1.53
2023-01-01T16:02:04.148Z,1.47
2023-01-01T16:04:33.571Z,1.50
2023-01-01T16:07:01.273Z,1.60
2023-01-01T16:09:29.021Z,1.80
2023-01-01T16:11:57.467Z,1.33
2023-01-01T16:14:25.376Z,1.43
2023-01-01T16:16:57.340Z,1.50
2023-01-01T16:19:25.319Z,1.80
2023-01-01T16:21:54.425Z,1.83
2023-01-01T16:24:23.036Z,2.20
2023-01-01T16:26:50.739Z,2.37
2023-01-01T16:29:18.448Z,1.70
2023-01-01T16:31:47.297Z,1.70
2023-01-01T16:34:15.478Z,2.03
2023-01-01T16:36:43.385Z,1.80
2023-01-01T16:39:12.629Z,1.80
2023-01-01T16:41:41.011Z,1.50
2023-01-01T16:44:10.124Z,1.53
2023-01-01T16:46:37.929Z,1.80
2023-01-01T16:49:05.739Z,1.70
2023-01-01T16:51:40.625Z,1.40
2023-01-01T16:54:12.479Z,1.53
2023-01-01T16:56:40.313Z,1.73
2023-01-01T16:59:08.064Z,1.60
2023-01-01T17:01:35.954Z,1.97
2023-01-01T17:04:03.801Z,2.40
2023-01-01T17:06:31.713Z,2.53
2023-01-01T17:09:00.034Z,4.13
2023-01-01T17:11:29.332Z,3.70
2023-01-01T17:13:58.441Z,4.10
2023-01-01T17:16:32.972Z,2.70
2023-01-01T17:19:21.690Z,2.07
2023-01-01T17:21:49.567Z,2.07
2023-01-01T17:24:17.487Z,1.73
2023-01-01T17:26:46.683Z,1.77
2023-01-01T17:29:18.688Z,1.93
2023-01-01T17:34:21.467Z,2.03
2023-01-01T17:36:49.500Z,1.83
2023-01-01T17:39:17.221Z,1.80
2023-01-01T17:41:46.233Z,2.30
2023-01-01T17:44:14.004Z,2.10
2023-01-01T17:46:44.079Z,2.23
2023-01-01T17:49:11.934Z,2.40
2023-01-01T17:51:40.065Z,2.30
2023-01-01T17:54:11.597Z,2.93
2023-01-01T17:56:39.177Z,2.90
2023-01-01T17:59:08.129Z,3.53
2023-01-01T18:01:35.937Z,3.07
2023-01-01T18:04:04.933Z,3.20
2023-01-01T18:06:36.072Z,3.50
2023-01-01T18:09:10.333Z,2.57
2023-01-01T18:11:37.989Z,3.73
2023-01-01T18:14:05.721Z,3.57
2023-01-01T18:16:35.695Z,3.53
2023-01-01T18:19:10.153Z,3.70
2023-01-01T18:21:37.756Z,3.10
2023-01-01T18:24:07.789Z,4.60
2023-01-01T18:26:35.701Z,3.97
2023-01-01T18:29:03.430Z,4.50
2023-01-01T18:31:34.379Z,3.43
2023-01-01T18:34:04.336Z,3.30
2023-01-01T18:36:32.939Z,3.53
2023-01-01T18:39:01.424Z,11.07
2023-01-01T18:41:51.308Z,4.10
2023-01-01T18:44:21.107Z,4.87
2023-01-01T18:46:52.627Z,4.63
2023-01-01T18:49:27.249Z,4.47
2023-01-01T18:51:59.231Z,4.27
2023-01-01T18:54:26.914Z,3.67
2023-01-01T18:57:01.584Z,3.13
2023-01-01T18:59:32.788Z,3.53
2023-01-01T19:02:00.470Z,4.47
2023-01-01T19:04:29.608Z,4.10
2023-01-01T19:06:57.653Z,4.43
2023-01-01T19:09:26.802Z,4.07
2023-01-01T19:12:18.200Z,7.57
2023-01-01T19:14:45.912Z,4.20
2023-01-01T19:17:16.308Z,3.53
2023-01-01T19:19:45.407Z,3.67
2023-01-01T19:22:18.273Z,3.97
2023-01-01T19:24:45.886Z,4.20
2023-01-01T19:27:15.706Z,4.10
2023-01-01T19:29:44.021Z,3.73
2023-01-01T19:32:11.594Z,4.40
2023-01-01T19:34:39.808Z,4.30
2023-01-01T19:37:09.208Z,5.30
2023-01-01T19:39:36.807Z,4.20
2023-01-01T19:42:05.186Z,4.83
2023-01-01T19:44:32.814Z,8.00
2023-01-01T19:47:01.110Z,7.13
2023-01-01T19:49:28.879Z,10.33
2023-01-01T19:51:56.469Z,4.90
2023-01-01T19:54:26.221Z,4.23
2023-01-01T19:56:53.770Z,4.67
2023-01-01T19:59:21.461Z,5.33
2023-01-01T20:02:09.983Z,4.10
2023-01-01T20:04:36.748Z,5.37
2023-01-01T20:07:04.410Z,5.27
2023-01-01T20:09:34.235Z,4.53
2023-01-01T20:12:02.018Z,4.10
2023-01-01T20:14:29.587Z,4.27
2023-01-01T20:16:57.670Z,5.17
2023-01-01T20:19:25.317Z,5.50
2023-01-01T20:22:10.237Z,4.97
2023-01-01T20:24:41.374Z,4.47
2023-01-01T20:27:11.030Z,4.77
2023-01-01T20:29:38.664Z,10.43
2023-01-01T20:32:12.253Z,6.33
2023-01-01T20:34:40.043Z,4.40
2023-01-01T20:37:25.270Z,3.67
2023-01-01T20:39:54.183Z,4.43
2023-01-01T20:42:21.828Z,3.87
2023-01-01T20:44:49.383Z,4.53
2023-01-01T20:47:16.969Z,3.70
2023-01-01T20:49:44.634Z,4.30
2023-01-01T20:52:12.223Z,3.70
2023-01-01T20:54:39.985Z,2.83
2023-01-01T20:57:08.927Z,3.63
2023-01-01T20:59:38.044Z,3.87
2023-01-01T21:02:06.639Z,3.97
2023-01-01T21:04:38.671Z,3.93
2023-01-01T21:07:07.096Z,4.37
2023-01-01T21:09:35.727Z,3.30
2023-01-01T21:12:03.295Z,3.23
2023-01-01T21:14:32.359Z,3.97
2023-01-01T21:17:00.038Z,7.70
2023-01-01T21:19:28.568Z,3.30
2023-01-01T21:21:56.568Z,3.90
2023-01-01T21:24:26.353Z,4.10
2023-01-01T21:26:54.919Z,3.30
2023-01-01T21:29:23.346Z,3.67
2023-01-01T21:31:53.856Z,3.80
2023-01-01T21:34:25.556Z,3.13
2023-01-01T21:36:53.636Z,3.63
2023-01-01T21:39:21.657Z,3.73
2023-01-01T21:41:49.363Z,3.80
2023-01-01T21:44:17.084Z,3.73
2023-01-01T21:46:54.222Z,3.77
2023-01-01T21:49:29.965Z,3.27
2023-01-01T21:51:58.124Z,3.33
2023-01-01T21:54:27.118Z,3.67
2023-01-01T21:56:57.283Z,3.00
2023-01-01T21:59:30.263Z,3.33
2023-01-01T22:02:16.457Z,2.73
2023-01-01T22:04:46.277Z,2.70
2023-01-01T22:10:12.539Z,2.90
2023-01-01T22:12:40.150Z,3.13
2023-01-01T22:15:24.323Z,3.77
2023-01-01T22:17:51.999Z,3.30
2023-01-01T22:20:23.671Z,2.80
2023-01-01T22:22:51.279Z,2.63
2023-01-01T22:25:24.009Z,3.20
2023-01-01T22:27:51.853Z,3.33
2023-01-01T22:30:37.278Z,3.03
2023-01-01T22:33:11.052Z,2.73
2023-01-01T22:35:39.983Z,2.13
2023-01-01T22:38:08.599Z,2.97
2023-01-01T22:40:37.456Z,2.10
2023-01-01T22:43:06.853Z,3.37
2023-01-01T22:45:34.481Z,3.43
2023-01-01T22:48:03.263Z,6.87
2023-01-01T22:50:30.870Z,2.60
2023-01-01T22:52:59.820Z,2.93
2023-01-01T22:55:27.345Z,2.87
2023-01-01T22:57:55.934Z,3.20
2023-01-01T23:00:23.513Z,2.90
2023-01-01T23:02:51.241Z,2.97
2023-01-01T23:05:18.853Z,2.80
2023-01-01T23:07:46.493Z,2.93
2023-01-01T23:10:15.427Z,3.37
2023-01-01T23:12:43.022Z,3.13
2023-01-01T23:15:29.224Z,2.40
2023-01-01T23:17:56.785Z,3.40
2023-01-01T23:20:24.441Z,2.80
2023-01-01T23:22:53.134Z,3.10
2023-01-01T23:25:22.190Z,2.90
2023-01-01T23:27:49.749Z,2.90
2023-01-01T23:30:17.424Z,2.70
2023-01-01T23:35:21.503Z,2.73
2023-01-01T23:37:49.073Z,3.30
2023-01-01T23:40:16.817Z,3.83
2023-01-01T23:42:45.833Z,3.30
2023-01-01T23:45:13.484Z,3.40
2023-01-01T23:47:41.317Z,3.20
2023-01-01T23:50:09.845Z,3.00
2023-01-01T23:52:37.422Z,3.10
2023-01-01T23:55:05.705Z,2.97
2023-01-01T23:57:33.297Z,2.60
